Terminal Aerodrome Forecast
Issued by NWS Twin Cities, MN

Home | Current Version | Previous Version | Text Only | Print | Product List | Glossary On
Versions: 1 2 3 4 5 6 7 8 9 10 11 12 13 14 15 16
000
FTUS43 KMPX 281906 AAA
TAFEAU
TAF AMD
KEAU 281906Z 2819/2918 16010KT 6SM -SHRA BKN100
     FM282100 16007KT P6SM BKN150
     FM290700 12003KT 4SM BR BKN020
      TEMPO 2908/2912 2SM BR
     FM291500 09004KT P6SM SCT020=

USA.gov is the U.S. government's official web portal to all federal, state and local government web resources and services.